createdAt,value
2019-05-16T00:00:51.412Z,48.00
2019-05-16T00:01:51.388Z,52.00
2019-05-16T00:02:51.429Z,60.00
2019-05-16T00:03:51.367Z,64.00
2019-05-16T00:04:51.358Z,72.00
2019-05-16T00:05:54.387Z,84.00
2019-05-16T00:06:51.335Z,92.00
2019-05-16T00:07:51.326Z,100.00
2019-05-16T00:08:51.411Z,112.00
2019-05-16T00:09:51.305Z,128.00
2019-05-16T00:10:51.288Z,140.00
2019-05-16T00:11:51.281Z,156.00
2019-05-16T00:12:51.274Z,172.00
2019-05-16T00:13:51.258Z,188.00
2019-05-16T00:14:51.401Z,212.00
2019-05-16T00:15:51.238Z,244.00
2019-05-16T00:16:51.233Z,272.00
2019-05-16T00:17:51.213Z,300.00
2019-05-16T00:18:51.215Z,328.00
2019-05-16T00:19:51.422Z,360.00
2019-05-16T00:20:51.283Z,392.00
2019-05-16T00:21:51.170Z,428.00
2019-05-16T00:22:51.160Z,472.00
2019-05-16T00:23:51.149Z,516.00
2019-05-16T00:24:51.145Z,556.00
2019-05-16T00:25:51.128Z,604.00
2019-05-16T00:26:51.222Z,660.00
2019-05-16T00:27:51.109Z,716.00
2019-05-16T00:28:51.095Z,792.00
2019-05-16T00:29:51.086Z,912.00
2019-05-16T00:30:51.072Z,1004.00
2019-05-16T00:31:51.062Z,1108.00
2019-05-16T00:32:51.209Z,1340.00
2019-05-16T00:33:51.041Z,1440.00
2019-05-16T00:34:51.030Z,1700.00
2019-05-16T00:36:02.243Z,1916.00
2019-05-16T00:37:18.004Z,2084.00
2019-05-16T00:38:15.862Z,2300.00
2019-05-16T00:39:15.806Z,2476.00
2019-05-16T00:40:15.792Z,2616.00
2019-05-16T00:41:17.842Z,2720.00
2019-05-16T00:42:17.958Z,2796.00
2019-05-16T00:43:15.760Z,2864.00
2019-05-16T00:44:15.846Z,2936.00
2019-05-16T00:45:18.327Z,3040.00
2019-05-16T00:46:15.726Z,3132.00
2019-05-16T00:47:17.706Z,2956.00
2019-05-16T00:48:15.704Z,2392.00
2019-05-16T00:49:15.699Z,2132.00
2019-05-16T00:50:18.052Z,2176.00
2019-05-16T00:51:15.673Z,2248.00
2019-05-16T00:52:15.663Z,2372.00
2019-05-16T00:53:15.648Z,2548.00
2019-05-16T00:54:15.642Z,2768.00
2019-05-16T00:55:17.779Z,3028.00
2019-05-16T00:56:15.718Z,3364.00
2019-05-16T00:57:15.606Z,4104.00
2019-05-16T00:58:18.511Z,5252.00
2019-05-16T00:59:15.586Z,6724.00
2019-05-16T01:00:18.029Z,7028.00
2019-05-16T01:01:15.569Z,7100.00
2019-05-16T01:02:15.601Z,7048.00
2019-05-16T01:03:15.541Z,7272.00
2019-05-16T01:04:15.529Z,7208.00
2019-05-16T01:05:15.518Z,5856.00
2019-05-16T01:06:19.923Z,4500.00
2019-05-16T01:07:40.711Z,4624.00
2019-05-16T01:08:40.697Z,4092.00
2019-05-16T01:09:40.691Z,3008.00
2019-05-16T01:10:40.679Z,3280.00
2019-05-16T01:11:40.670Z,5220.00
2019-05-16T01:12:40.708Z,2400.00
2019-05-16T01:13:40.648Z,2088.00
2019-05-16T01:14:40.639Z,1928.00
2019-05-16T01:15:40.626Z,1816.00
2019-05-16T01:16:40.620Z,1768.00
2019-05-16T01:17:40.605Z,1732.00
2019-05-16T01:18:40.651Z,1688.00
2019-05-16T01:19:40.586Z,1640.00
2019-05-16T01:20:40.574Z,1604.00
2019-05-16T01:21:40.565Z,1576.00
2019-05-16T01:22:40.554Z,1540.00
2019-05-16T01:23:40.543Z,1512.00
2019-05-16T01:24:41.499Z,1500.00
2019-05-16T01:25:40.521Z,1508.00
2019-05-16T01:26:40.509Z,1520.00
2019-05-16T01:27:40.498Z,1552.00
2019-05-16T01:28:40.489Z,1636.00
2019-05-16T01:29:40.476Z,1744.00
2019-05-16T01:30:40.518Z,1840.00
2019-05-16T01:31:40.457Z,1968.00
2019-05-16T01:32:40.448Z,2132.00
2019-05-16T01:33:40.434Z,2304.00
2019-05-16T01:34:40.422Z,2448.00
2019-05-16T01:35:41.861Z,2556.00
2019-05-16T01:36:40.875Z,2596.00
2019-05-16T01:37:40.391Z,2592.00
2019-05-16T01:38:40.382Z,2588.00
2019-05-16T01:39:40.371Z,2568.00
2019-05-16T01:40:40.367Z,2564.00
2019-05-16T01:41:40.351Z,2552.00
2019-05-16T01:42:40.589Z,2544.00
2019-05-16T01:43:40.329Z,2464.00
2019-05-16T01:44:40.319Z,2300.00
2019-05-16T01:45:40.307Z,2168.00
2019-05-16T01:46:40.296Z,2096.00
2019-05-16T01:47:40.285Z,2076.00
2019-05-16T01:48:40.324Z,2076.00
2019-05-16T01:49:40.266Z,2084.00
2019-05-16T01:50:40.251Z,2096.00
2019-05-16T01:51:40.243Z,2180.00
2019-05-16T01:52:40.237Z,2372.00
2019-05-16T01:53:40.221Z,2712.00
2019-05-16T01:54:40.260Z,2860.00
2019-05-16T01:55:40.204Z,2932.00
2019-05-16T01:56:40.190Z,4004.00
2019-05-16T01:57:40.178Z,3048.00
2019-05-16T01:58:40.168Z,3528.00
2019-05-16T01:59:40.158Z,3520.00
2019-05-16T02:00:49.190Z,3188.00
2019-05-16T02:01:41.235Z,2676.00
2019-05-16T02:02:40.126Z,2760.00
2019-05-16T02:03:40.112Z,2708.00
2019-05-16T02:04:40.107Z,2628.00
2019-05-16T02:05:40.094Z,2572.00
2019-05-16T02:06:50.856Z,2556.00
2019-05-16T02:08:04.888Z,2524.00
2019-05-16T02:09:04.875Z,2492.00
2019-05-16T02:10:04.864Z,2464.00
2019-05-16T02:11:04.852Z,2468.00
2019-05-16T02:12:04.892Z,2516.00
2019-05-16T02:13:04.831Z,2620.00
2019-05-16T02:14:04.817Z,2748.00
2019-05-16T02:15:04.808Z,2876.00
2019-05-16T02:16:04.795Z,3000.00
2019-05-16T02:17:04.787Z,3100.00
2019-05-16T02:18:04.926Z,3184.00
2019-05-16T02:19:04.763Z,3244.00
2019-05-16T02:20:04.757Z,3288.00
2019-05-16T02:21:04.745Z,3312.00
2019-05-16T02:22:04.733Z,3328.00
2019-05-16T02:23:04.722Z,3340.00
2019-05-16T02:24:04.818Z,3392.00
2019-05-16T02:25:04.702Z,3452.00
2019-05-16T02:26:04.689Z,3548.00
2019-05-16T02:27:04.679Z,3700.00
2019-05-16T02:28:04.669Z,3924.00
2019-05-16T02:29:04.713Z,4180.00
2019-05-16T02:30:04.648Z,4444.00
2019-05-16T02:31:04.633Z,4764.00
2019-05-16T02:32:04.624Z,5076.00
2019-05-16T02:33:04.613Z,5440.00
2019-05-16T02:34:05.109Z,5800.00
2019-05-16T02:35:04.591Z,6172.00
2019-05-16T02:36:04.583Z,6576.00
2019-05-16T02:37:24.326Z,6980.00
2019-05-16T02:38:05.654Z,7100.00
2019-05-16T02:39:04.550Z,7036.00
2019-05-16T02:40:04.608Z,6908.00
2019-05-16T02:41:04.525Z,6780.00
2019-05-16T02:42:04.513Z,6608.00
2019-05-16T02:43:04.504Z,6424.00
2019-05-16T02:44:04.496Z,6228.00
2019-05-16T02:45:04.589Z,6240.00
2019-05-16T02:46:04.478Z,9120.00
2019-05-16T02:47:04.457Z,5900.00
2019-05-16T02:48:04.449Z,5568.00
2019-05-16T02:49:04.439Z,5504.00
2019-05-16T02:50:04.432Z,5416.00
2019-05-16T02:51:04.522Z,5416.00
2019-05-16T02:52:04.419Z,5436.00
2019-05-16T02:53:04.393Z,5432.00
2019-05-16T02:54:04.388Z,5464.00
2019-05-16T02:55:04.375Z,5504.00
2019-05-16T02:56:04.516Z,5552.00
2019-05-16T02:57:04.352Z,5468.00
2019-05-16T02:58:04.341Z,5220.00
2019-05-16T02:59:04.334Z,5060.00
2019-05-16T03:00:04.318Z,4880.00
2019-05-16T03:01:04.307Z,4712.00
2019-05-16T03:02:04.343Z,4520.00
2019-05-16T03:03:04.283Z,4296.00
2019-05-16T03:04:04.275Z,4072.00
2019-05-16T03:05:04.266Z,3888.00
2019-05-16T03:06:04.260Z,3716.00
2019-05-16T03:07:04.291Z,3576.00
2019-05-16T03:08:04.238Z,3508.00
2019-05-16T03:09:05.353Z,3536.00
2019-05-16T03:10:04.220Z,3620.00
2019-05-16T03:11:04.200Z,3832.00
2019-05-16T03:12:04.338Z,4196.00
2019-05-16T03:13:04.177Z,4744.00
2019-05-16T03:14:04.166Z,5524.00
2019-05-16T03:15:04.154Z,6508.00
2019-05-16T03:16:04.144Z,7848.00
2019-05-16T03:17:04.142Z,9728.00
2019-05-16T03:18:04.754Z,10408.00
2019-05-16T03:19:04.115Z,11760.00
2019-05-16T03:20:04.098Z,42304.00
2019-05-16T03:21:04.090Z,44416.00
2019-05-16T03:22:04.117Z,44192.00
2019-05-16T03:23:04.071Z,26112.00
2019-05-16T03:24:04.161Z,47104.00
2019-05-16T03:25:04.052Z,47680.00
2019-05-16T03:26:04.041Z,33248.00
2019-05-16T03:27:04.042Z,20036.00
2019-05-16T03:28:04.016Z,15492.00
2019-05-16T03:29:04.005Z,44352.00
2019-05-16T03:30:04.249Z,42624.00
2019-05-16T03:31:05.627Z,41696.00
2019-05-16T03:32:04.023Z,41824.00
2019-05-16T03:33:05.602Z,40928.00
2019-05-16T03:34:07.587Z,41824.00
2019-05-16T03:35:05.576Z,21504.00
2019-05-16T03:36:05.175Z,43008.00
2019-05-16T03:37:04.922Z,22976.00
2019-05-16T03:38:05.727Z,18896.00
2019-05-16T03:39:03.899Z,16652.00
2019-05-16T03:40:03.889Z,32416.00
2019-05-16T03:41:03.881Z,27072.00
2019-05-16T03:42:03.918Z,42944.00
2019-05-16T03:43:03.856Z,18404.00
2019-05-16T03:44:03.856Z,40896.00
2019-05-16T03:45:03.836Z,36448.00
2019-05-16T03:46:03.827Z,41440.00
2019-05-16T03:47:03.815Z,15096.00
2019-05-16T03:48:04.068Z,12768.00
2019-05-16T03:49:03.798Z,11768.00
2019-05-16T03:50:03.782Z,11548.00
2019-05-16T03:51:03.777Z,11100.00
2019-05-16T03:52:03.764Z,10276.00
2019-05-16T03:53:03.753Z,9928.00
2019-05-16T03:54:03.789Z,9604.00
2019-05-16T03:55:03.738Z,9312.00
2019-05-16T03:56:03.723Z,9040.00
2019-05-16T03:57:03.714Z,8864.00
2019-05-16T03:58:03.727Z,9160.00
2019-05-16T03:59:03.691Z,10596.00
2019-05-16T04:00:03.736Z,8916.00
2019-05-16T04:01:03.680Z,18876.00
2019-05-16T04:02:03.663Z,34144.00
2019-05-16T04:03:03.649Z,36288.00
2019-05-16T04:04:03.639Z,37088.00
2019-05-16T04:05:03.629Z,38112.00
2019-05-16T04:06:03.671Z,13732.00
2019-05-16T04:07:03.609Z,11176.00
2019-05-16T04:08:14.819Z,10756.00
2019-05-16T04:09:31.333Z,13440.00
2019-05-16T04:10:30.930Z,24352.00
2019-05-16T04:11:31.805Z,28480.00
2019-05-16T04:12:30.884Z,31136.00
2019-05-16T04:13:31.078Z,32000.00
2019-05-16T04:14:30.902Z,32000.00
2019-05-16T04:15:31.089Z,30208.00
2019-05-16T04:16:31.224Z,31136.00
2019-05-16T04:17:31.419Z,30656.00
2019-05-16T04:18:31.531Z,30112.00
2019-05-16T04:19:31.188Z,23168.00
2019-05-16T04:20:30.475Z,20416.00
2019-05-16T04:21:31.941Z,17152.00
2019-05-16T04:22:31.534Z,13448.00
2019-05-16T04:23:30.994Z,16532.00
2019-05-16T04:24:31.421Z,14272.00
2019-05-16T04:25:30.935Z,19416.00
2019-05-16T04:26:30.926Z,20608.00
2019-05-16T04:27:30.920Z,15332.00
2019-05-16T04:28:31.353Z,17652.00
2019-05-16T04:29:31.272Z,12364.00
2019-05-16T04:30:31.298Z,13692.00
2019-05-16T04:31:30.824Z,16384.00
2019-05-16T04:32:31.270Z,13540.00
2019-05-16T04:33:30.882Z,15644.00
2019-05-16T04:34:31.168Z,12956.00
2019-05-16T04:35:28.126Z,12852.00
2019-05-16T04:36:28.120Z,14684.00
2019-05-16T04:37:31.100Z,13556.00
2019-05-16T04:38:39.794Z,13448.00
2019-05-16T04:39:31.823Z,12492.00
2019-05-16T04:40:30.941Z,13928.00
2019-05-16T04:41:31.131Z,13760.00
2019-05-16T04:42:30.773Z,13208.00
2019-05-16T04:43:31.342Z,12696.00
2019-05-16T04:44:31.057Z,12304.00
2019-05-16T04:45:28.028Z,11988.00
2019-05-16T04:46:31.097Z,11696.00
2019-05-16T04:47:30.954Z,11480.00
2019-05-16T04:48:30.731Z,11244.00
2019-05-16T04:49:27.987Z,11072.00
2019-05-16T04:50:30.990Z,10884.00
2019-05-16T04:51:30.579Z,10672.00
2019-05-16T04:52:30.629Z,10504.00
2019-05-16T04:53:31.291Z,10296.00
2019-05-16T04:54:30.780Z,10148.00
2019-05-16T04:55:31.380Z,10012.00
2019-05-16T04:56:30.677Z,9876.00
2019-05-16T04:57:31.018Z,9800.00
2019-05-16T04:58:31.399Z,9728.00
2019-05-16T04:59:30.935Z,9656.00
2019-05-16T05:00:31.625Z,9588.00
2019-05-16T05:01:30.687Z,9508.00
2019-05-16T05:02:30.660Z,9372.00
2019-05-16T05:03:31.241Z,9280.00
2019-05-16T05:04:30.508Z,9220.00
2019-05-16T05:05:27.830Z,9156.00
2019-05-16T05:06:27.820Z,9176.00
2019-05-16T05:07:30.983Z,8604.00
2019-05-16T05:08:30.511Z,8392.00
2019-05-16T05:09:27.806Z,8604.00
2019-05-16T05:10:31.016Z,9540.00
2019-05-16T05:11:30.481Z,9548.00
2019-05-16T05:12:27.760Z,9544.00
2019-05-16T05:13:30.485Z,9468.00
2019-05-16T05:14:30.576Z,9464.00
2019-05-16T05:15:30.472Z,9468.00
2019-05-16T05:16:30.480Z,9432.00
2019-05-16T05:17:30.430Z,9296.00
2019-05-16T05:18:30.047Z,9076.00
2019-05-16T05:19:30.482Z,8812.00
2019-05-16T05:20:30.205Z,8616.00
2019-05-16T05:21:27.668Z,8436.00
2019-05-16T05:22:27.710Z,8284.00
2019-05-16T05:23:29.957Z,8152.00
2019-05-16T05:24:27.635Z,8060.00
2019-05-16T05:25:27.631Z,7988.00
2019-05-16T05:26:27.613Z,7908.00
2019-05-16T05:27:27.605Z,7816.00
2019-05-16T05:28:29.782Z,7724.00
2019-05-16T05:29:27.586Z,7632.00
2019-05-16T05:30:27.576Z,7568.00
2019-05-16T05:31:27.592Z,7516.00
2019-05-16T05:32:27.555Z,7452.00
2019-05-16T05:33:29.971Z,7420.00
2019-05-16T05:34:27.582Z,7404.00
2019-05-16T05:35:27.528Z,7416.00
2019-05-16T05:36:29.881Z,7344.00
2019-05-16T05:37:29.606Z,7408.00
2019-05-16T05:38:27.495Z,7568.00
2019-05-16T05:39:27.478Z,7592.00
2019-05-16T05:40:29.549Z,7248.00
2019-05-16T05:41:27.460Z,7116.00
2019-05-16T05:42:27.448Z,7228.00
2019-05-16T05:43:27.441Z,7232.00
2019-05-16T05:44:27.428Z,7084.00
2019-05-16T05:45:27.419Z,7000.00
2019-05-16T05:46:27.562Z,7076.00
2019-05-16T05:47:27.397Z,7240.00
2019-05-16T05:48:27.389Z,7548.00
2019-05-16T05:49:30.025Z,8068.00
2019-05-16T05:50:27.369Z,8596.00
2019-05-16T05:52:30.053Z,9452.00
2019-05-16T05:53:29.835Z,9276.00
2019-05-16T05:54:27.326Z,8976.00
2019-05-16T05:55:27.318Z,8724.00
2019-05-16T05:56:27.306Z,8576.00
2019-05-16T05:57:29.850Z,8324.00
2019-05-16T05:58:30.508Z,8020.00
2019-05-16T05:59:27.272Z,7720.00
2019-05-16T06:00:30.121Z,7460.00
2019-05-16T06:01:27.258Z,7228.00
2019-05-16T06:02:27.240Z,7068.00
2019-05-16T06:03:27.232Z,6928.00
2019-05-16T06:04:27.374Z,6768.00
2019-05-16T06:05:27.217Z,6580.00
2019-05-16T06:06:27.200Z,6384.00
2019-05-16T06:07:27.200Z,6188.00
2019-05-16T06:08:27.184Z,6020.00
2019-05-16T06:09:30.082Z,5880.00
2019-05-16T06:10:27.207Z,5788.00
2019-05-16T06:11:27.150Z,5740.00
2019-05-16T06:12:27.964Z,5684.00
2019-05-16T06:13:27.134Z,5636.00
2019-05-16T06:14:27.116Z,5592.00
2019-05-16T06:15:27.106Z,5556.00
2019-05-16T06:16:27.145Z,5520.00
2019-05-16T06:17:27.097Z,5484.00
2019-05-16T06:18:27.076Z,5444.00
2019-05-16T06:19:27.070Z,5412.00
2019-05-16T06:20:27.058Z,5392.00
2019-05-16T06:21:27.057Z,5384.00
2019-05-16T06:22:29.657Z,5368.00
2019-05-16T06:23:27.027Z,5340.00
2019-05-16T06:24:27.018Z,5324.00
2019-05-16T06:25:27.004Z,5296.00
2019-05-16T06:26:26.995Z,5284.00
2019-05-16T06:27:26.981Z,5280.00
2019-05-16T06:28:27.075Z,5280.00
2019-05-16T06:29:26.965Z,5296.00
2019-05-16T06:30:26.957Z,5300.00
2019-05-16T06:31:26.945Z,5304.00
2019-05-16T06:32:26.929Z,5316.00
2019-05-16T06:33:26.925Z,5312.00
2019-05-16T06:34:27.013Z,5312.00
2019-05-16T06:35:26.902Z,5324.00
2019-05-16T06:36:26.889Z,5340.00
2019-05-16T06:37:26.877Z,5340.00
2019-05-16T06:38:26.869Z,5336.00
2019-05-16T06:39:39.210Z,5308.00
2019-05-16T06:40:52.839Z,5248.00
2019-05-16T06:41:51.901Z,5212.00
2019-05-16T06:42:51.890Z,5176.00
2019-05-16T06:43:51.879Z,5132.00
2019-05-16T06:44:51.873Z,5092.00
2019-05-16T06:45:51.960Z,5060.00
2019-05-16T06:47:10.072Z,5028.00
2019-05-16T06:47:52.935Z,5004.00
2019-05-16T06:48:51.828Z,4984.00
2019-05-16T06:49:51.817Z,4976.00
2019-05-16T06:50:52.056Z,4980.00
2019-05-16T06:51:51.904Z,4988.00
2019-05-16T06:52:51.793Z,5016.00
2019-05-16T06:53:51.773Z,5152.00
2019-05-16T06:54:53.805Z,5276.00
2019-05-16T06:55:51.758Z,5348.00
2019-05-16T06:56:51.747Z,5608.00
2019-05-16T06:57:51.887Z,5812.00
2019-05-16T06:58:52.266Z,5844.00
2019-05-16T06:59:51.711Z,5748.00
2019-05-16T07:00:52.690Z,5548.00
2019-05-16T07:01:51.695Z,5376.00
2019-05-16T07:02:51.683Z,5324.00
2019-05-16T07:03:51.720Z,5256.00
2019-05-16T07:04:51.664Z,5192.00
2019-05-16T07:05:51.662Z,5160.00
2019-05-16T07:06:58.924Z,5112.00
2019-05-16T07:07:52.725Z,5020.00
2019-05-16T07:08:51.622Z,4892.00
2019-05-16T07:10:00.174Z,4768.00
2019-05-16T07:10:52.701Z,4704.00
2019-05-16T07:11:51.596Z,4588.00
2019-05-16T07:12:51.580Z,4684.00
2019-05-16T07:13:52.096Z,4904.00
2019-05-16T07:14:51.566Z,5072.00
2019-05-16T07:15:51.700Z,5156.00
2019-05-16T07:16:51.545Z,5176.00
2019-05-16T07:17:51.532Z,5260.00
2019-05-16T07:18:51.527Z,5364.00
2019-05-16T07:19:51.502Z,5500.00
2019-05-16T07:20:51.607Z,5724.00
2019-05-16T07:21:51.586Z,6064.00
2019-05-16T07:22:51.474Z,6352.00
2019-05-16T07:23:51.465Z,6568.00
2019-05-16T07:24:51.459Z,6912.00
2019-05-16T07:25:51.445Z,7364.00
2019-05-16T07:26:51.452Z,7632.00
2019-05-16T07:27:51.521Z,7912.00
2019-05-16T07:28:51.807Z,7904.00
2019-05-16T07:29:51.401Z,7900.00
2019-05-16T07:30:51.392Z,7720.00
2019-05-16T07:31:52.458Z,7704.00
2019-05-16T07:32:51.370Z,7908.00
2019-05-16T07:33:51.521Z,8040.00
2019-05-16T07:34:51.350Z,8100.00
2019-05-16T07:35:51.673Z,7932.00
2019-05-16T07:36:51.329Z,7584.00
2019-05-16T07:37:51.319Z,7244.00
2019-05-16T07:38:51.307Z,7108.00
2019-05-16T07:39:51.405Z,7040.00
2019-05-16T07:40:51.579Z,7096.00
2019-05-16T07:41:51.283Z,7180.00
2019-05-16T07:42:51.271Z,7396.00
2019-05-16T07:43:51.264Z,7508.00
2019-05-16T07:44:51.258Z,7564.00
2019-05-16T07:45:51.756Z,7548.00
2019-05-16T07:46:51.734Z,7512.00
2019-05-16T07:47:51.259Z,7356.00
2019-05-16T07:48:52.042Z,7308.00
2019-05-16T07:49:51.201Z,7372.00
2019-05-16T07:50:51.187Z,7488.00
2019-05-16T07:51:51.429Z,7704.00
2019-05-16T07:52:51.379Z,8068.00
2019-05-16T07:53:51.155Z,8452.00
2019-05-16T07:54:51.147Z,8900.00
2019-05-16T07:55:51.301Z,9180.00
2019-05-16T07:56:58.714Z,9152.00
2019-05-16T07:57:53.169Z,9168.00
2019-05-16T07:58:51.107Z,9068.00
2019-05-16T07:59:51.103Z,8756.00
2019-05-16T08:01:02.114Z,8320.00
2019-05-16T08:02:15.895Z,7796.00
2019-05-16T08:03:15.929Z,7512.00
2019-05-16T08:04:15.869Z,7352.00
2019-05-16T08:05:15.855Z,7360.00
2019-05-16T08:06:15.849Z,7344.00
2019-05-16T08:07:15.835Z,7360.00
2019-05-16T08:08:15.836Z,7220.00
2019-05-16T08:09:16.217Z,7144.00
2019-05-16T08:10:31.546Z,7092.00
2019-05-16T08:11:40.980Z,7000.00
2019-05-16T08:12:40.957Z,7060.00
2019-05-16T08:13:40.589Z,7144.00
2019-05-16T08:14:41.036Z,7084.00
2019-05-16T08:15:40.803Z,7024.00
2019-05-16T08:16:40.984Z,6936.00
2019-05-16T08:17:44.159Z,6788.00
2019-05-16T08:18:44.954Z,6624.00
2019-05-16T08:19:40.526Z,6572.00
2019-05-16T08:20:41.717Z,6580.00
2019-05-16T08:21:41.204Z,6628.00
2019-05-16T08:22:41.602Z,6752.00
2019-05-16T08:23:41.178Z,6884.00
2019-05-16T08:24:40.480Z,7040.00
2019-05-16T08:25:41.201Z,7152.00
2019-05-16T08:27:42.444Z,7192.00
2019-05-16T08:28:41.588Z,7124.00
2019-05-16T08:29:40.613Z,7060.00
2019-05-16T08:30:41.181Z,6880.00
2019-05-16T08:31:43.073Z,6728.00
2019-05-16T08:32:42.027Z,6528.00
2019-05-16T08:33:41.487Z,6280.00
2019-05-16T08:34:41.003Z,6236.00
2019-05-16T08:35:41.408Z,6220.00
2019-05-16T08:36:41.077Z,6548.00
2019-05-16T08:37:46.597Z,6752.00
2019-05-16T08:39:05.195Z,6952.00
2019-05-16T08:40:05.186Z,6928.00
2019-05-16T08:42:08.426Z,7124.00
2019-05-16T08:43:31.551Z,7356.00
2019-05-16T08:44:32.373Z,7648.00
2019-05-16T08:45:31.498Z,7880.00
2019-05-16T08:46:32.402Z,8048.00
2019-05-16T08:47:32.028Z,8200.00
2019-05-16T08:48:31.830Z,8260.00
2019-05-16T08:49:30.703Z,8248.00
2019-05-16T08:50:05.526Z,7024.00
2019-05-16T08:50:06.464Z,7200.00
2019-05-16T08:50:34.776Z,8276.00
2019-05-16T08:51:33.411Z,8348.00
2019-05-16T08:52:31.539Z,8496.00
2019-05-16T08:53:31.635Z,8624.00
2019-05-16T08:54:31.879Z,8712.00
2019-05-16T08:55:31.385Z,8836.00
2019-05-16T08:56:31.680Z,8884.00
2019-05-16T08:58:33.189Z,8828.00
2019-05-16T08:59:33.951Z,8804.00
2019-05-16T09:00:33.434Z,8820.00
2019-05-16T09:01:34.962Z,8888.00
2019-05-16T09:03:32.608Z,9184.00
2019-05-16T09:04:34.390Z,9364.00
2019-05-16T09:05:31.553Z,9540.00
2019-05-16T09:06:32.039Z,9620.00
2019-05-16T09:07:31.831Z,9684.00
2019-05-16T09:08:29.779Z,9808.00
2019-05-16T09:09:42.762Z,9972.00
2019-05-16T09:10:39.201Z,9020.00
2019-05-16T09:10:59.948Z,10124.00
2019-05-16T09:11:44.687Z,10148.00
2019-05-16T09:12:56.491Z,9748.00
2019-05-16T09:13:57.237Z,9356.00
2019-05-16T09:14:54.452Z,9252.00
2019-05-16T09:15:56.979Z,8964.00
2019-05-16T09:16:54.434Z,8708.00
2019-05-16T09:17:54.424Z,8904.00
2019-05-16T09:18:30.894Z,8852.00
2019-05-16T09:18:56.878Z,8828.00
2019-05-16T09:19:54.653Z,8788.00
2019-05-16T09:20:54.394Z,8688.00
2019-05-16T09:21:54.384Z,8300.00
2019-05-16T09:22:57.541Z,7952.00
2019-05-16T09:23:54.364Z,7756.00
2019-05-16T09:24:57.419Z,7528.00
2019-05-16T09:25:54.438Z,7532.00
2019-05-16T09:26:54.331Z,7680.00
2019-05-16T09:27:56.825Z,8292.00
2019-05-16T09:28:56.884Z,8680.00
2019-05-16T09:29:56.583Z,9024.00
2019-05-16T09:30:54.285Z,9484.00
2019-05-16T09:32:16.287Z,9748.00
2019-05-16T09:33:19.079Z,9548.00
2019-05-16T09:34:19.070Z,9328.00
2019-05-16T09:35:19.057Z,9000.00
2019-05-16T09:36:19.050Z,8432.00
2019-05-16T09:37:19.241Z,7988.00
2019-05-16T09:38:23.615Z,7588.00
2019-05-16T09:39:19.013Z,7164.00
2019-05-16T09:40:19.006Z,6896.00
2019-05-16T09:41:18.993Z,6700.00
2019-05-16T09:42:18.987Z,6664.00
2019-05-16T09:43:19.078Z,6528.00
2019-05-16T09:44:18.969Z,6632.00
2019-05-16T09:45:18.952Z,6848.00
2019-05-16T09:46:18.944Z,7204.00
2019-05-16T09:47:18.929Z,7232.00
2019-05-16T09:48:19.209Z,7516.00
2019-05-16T09:49:24.206Z,7632.00
2019-05-16T09:50:43.714Z,8508.00
2019-05-16T09:51:43.722Z,8568.00
2019-05-16T09:52:43.696Z,8616.00
2019-05-16T09:53:43.680Z,8260.00
2019-05-16T09:54:43.825Z,8288.00
2019-05-16T09:55:43.661Z,8384.00
2019-05-16T09:56:43.651Z,8212.00
2019-05-16T09:57:43.638Z,7860.00
2019-05-16T09:58:43.627Z,7692.00
2019-05-16T09:59:43.616Z,7472.00
2019-05-16T10:00:43.658Z,7208.00
2019-05-16T10:01:43.598Z,7032.00
2019-05-16T10:02:43.591Z,6964.00
2019-05-16T10:03:43.576Z,7052.00
2019-05-16T10:04:43.568Z,7220.00
2019-05-16T10:05:43.556Z,7576.00
2019-05-16T10:06:43.594Z,7852.00
2019-05-16T10:07:43.537Z,8140.00
2019-05-16T10:08:43.524Z,8380.00
2019-05-16T10:09:46.989Z,8752.00
2019-05-16T10:11:08.316Z,9176.00
2019-05-16T10:12:15.190Z,9492.00
2019-05-16T10:13:33.111Z,10000.00
2019-05-16T10:14:33.099Z,10100.00
2019-05-16T10:15:33.091Z,9852.00
2019-05-16T10:16:33.083Z,9208.00
2019-05-16T10:17:33.171Z,8820.00
2019-05-16T10:18:33.057Z,8540.00
2019-05-16T10:19:33.052Z,8308.00
2019-05-16T10:20:33.039Z,8072.00
2019-05-16T10:21:33.029Z,7908.00
2019-05-16T10:22:33.067Z,7828.00
2019-05-16T10:23:33.011Z,7820.00
2019-05-16T10:24:32.997Z,7828.00
2019-05-16T10:25:32.992Z,7792.00
2019-05-16T10:26:32.981Z,8004.00
2019-05-16T10:27:32.966Z,8248.00
2019-05-16T10:28:33.356Z,8496.00
2019-05-16T10:29:32.948Z,8892.00
2019-05-16T10:30:32.941Z,9176.00
2019-05-16T10:31:45.031Z,9352.00
2019-05-16T10:33:00.404Z,9380.00
2019-05-16T10:33:58.611Z,9520.00
2019-05-16T10:34:57.707Z,9320.00
2019-05-16T10:35:58.151Z,9292.00
2019-05-16T10:36:57.755Z,9180.00
2019-05-16T10:37:57.734Z,8880.00
2019-05-16T10:38:59.103Z,8636.00
2019-05-16T10:39:59.932Z,8452.00
2019-05-16T10:40:57.651Z,8336.00
2019-05-16T10:41:57.635Z,8316.00
2019-05-16T10:42:58.010Z,8240.00
2019-05-16T10:43:57.621Z,8072.00
2019-05-16T10:44:57.861Z,7684.00
2019-05-16T10:45:57.999Z,7484.00
2019-05-16T10:46:57.591Z,7228.00
2019-05-16T10:47:57.576Z,6956.00
2019-05-16T10:48:57.866Z,6668.00
2019-05-16T10:49:57.551Z,6260.00
2019-05-16T10:50:57.903Z,5904.00
2019-05-16T10:51:57.810Z,5556.00
2019-05-16T10:53:22.588Z,5312.00
2019-05-16T10:54:09.150Z,5288.00
2019-05-16T10:55:22.434Z,5660.00
2019-05-16T10:56:22.305Z,5936.00
2019-05-16T10:57:22.464Z,6216.00
2019-05-16T10:58:35.654Z,6436.00
2019-05-16T11:00:01.848Z,6828.00
2019-05-16T11:01:11.366Z,7120.00
2019-05-16T11:02:11.910Z,7264.00
2019-05-16T11:03:11.922Z,7228.00
2019-05-16T11:04:24.229Z,7120.00
2019-05-16T11:05:25.921Z,6952.00
2019-05-16T11:06:37.215Z,6620.00
2019-05-16T11:07:37.205Z,6448.00
2019-05-16T11:08:39.443Z,6308.00
2019-05-16T11:09:39.095Z,6172.00
2019-05-16T11:10:37.282Z,6060.00
2019-05-16T11:11:36.894Z,5964.00
2019-05-16T11:12:47.412Z,5824.00
2019-05-16T11:14:01.437Z,5704.00
2019-05-16T11:15:01.391Z,5644.00
2019-05-16T11:16:01.368Z,5616.00
2019-05-16T11:17:01.360Z,5604.00
2019-05-16T11:18:01.345Z,5552.00
2019-05-16T11:19:14.295Z,5532.00
2019-05-16T11:20:26.976Z,5464.00
2019-05-16T11:21:26.815Z,5416.00
2019-05-16T11:22:29.570Z,5360.00
2019-05-16T11:23:30.879Z,5320.00
2019-05-16T11:24:28.982Z,5304.00
2019-05-16T11:25:31.822Z,5292.00
2019-05-16T11:26:50.938Z,5228.00
2019-05-16T11:27:50.925Z,5228.00
2019-05-16T11:28:50.917Z,5212.00
2019-05-16T11:29:50.911Z,5180.00
2019-05-16T11:30:51.097Z,5176.00
2019-05-16T11:31:50.886Z,5200.00
2019-05-16T11:32:50.884Z,5232.00
2019-05-16T11:33:50.873Z,5252.00
2019-05-16T11:34:50.855Z,5264.00
2019-05-16T11:35:50.853Z,5252.00
2019-05-16T11:36:50.986Z,5308.00
2019-05-16T11:37:50.826Z,5332.00
2019-05-16T11:38:50.816Z,5340.00
2019-05-16T11:39:50.810Z,5360.00
2019-05-16T11:40:50.797Z,5388.00
2019-05-16T11:41:50.787Z,5392.00
2019-05-16T11:43:05.469Z,5388.00
2019-05-16T11:44:17.576Z,5440.00
2019-05-16T11:45:16.529Z,5504.00
2019-05-16T11:46:15.561Z,5536.00
2019-05-16T11:47:16.613Z,5516.00
2019-05-16T11:48:17.093Z,5420.00
2019-05-16T11:49:16.623Z,5340.00
2019-05-16T11:50:17.632Z,5260.00
2019-05-16T11:51:17.500Z,5160.00
2019-05-16T11:52:17.842Z,5088.00
2019-05-16T11:53:17.463Z,5164.00
2019-05-16T11:54:15.528Z,5332.00
2019-05-16T11:55:15.472Z,5528.00
2019-05-16T11:56:15.456Z,5728.00
2019-05-16T11:57:17.740Z,5744.00
2019-05-16T11:58:17.937Z,5688.00
2019-05-16T11:59:15.426Z,5552.00
2019-05-16T12:00:17.944Z,5424.00
2019-05-16T12:01:16.518Z,5348.00
2019-05-16T12:02:17.495Z,5288.00
2019-05-16T12:03:17.088Z,5268.00
2019-05-16T12:04:17.435Z,5256.00
2019-05-16T12:05:17.193Z,5236.00
2019-05-16T12:06:17.145Z,5260.00
2019-05-16T12:07:19.064Z,5292.00
2019-05-16T12:08:17.466Z,5356.00
2019-05-16T12:09:17.698Z,5388.00
2019-05-16T12:10:16.422Z,5420.00
2019-05-16T12:11:17.657Z,5448.00
2019-05-16T12:12:16.520Z,5432.00
2019-05-16T12:13:25.247Z,5360.00
2019-05-16T12:14:40.086Z,5228.00
2019-05-16T12:15:40.082Z,5120.00